createdAt,value
2019-02-21T00:02:20.295Z,14.60
2019-02-21T00:04:47.650Z,13.68
2019-02-21T00:07:14.994Z,16.05
2019-02-21T00:09:42.661Z,13.65
2019-02-21T00:12:10.043Z,17.50
2019-02-21T00:14:37.909Z,13.25
2019-02-21T00:17:05.236Z,14.10
2019-02-21T00:19:32.639Z,11.25
2019-02-21T00:22:00.007Z,15.83
2019-02-21T00:24:27.712Z,14.58
2019-02-21T00:26:55.155Z,13.83
2019-02-21T00:29:22.662Z,11.83
2019-02-21T00:31:50.522Z,15.20
2019-02-21T00:34:17.946Z,13.83
2019-02-21T00:36:45.368Z,14.78
2019-02-21T00:39:12.972Z,16.15
2019-02-21T00:41:40.508Z,19.30
2019-02-21T00:44:08.695Z,12.95
2019-02-21T00:46:36.007Z,16.17
2019-02-21T00:49:03.426Z,15.63
2019-02-21T00:51:30.882Z,14.07
2019-02-21T00:53:58.306Z,15.45
2019-02-21T00:56:25.756Z,12.88
2019-02-21T00:58:53.572Z,12.50
2019-02-21T01:01:21.758Z,14.05
2019-02-21T01:03:49.183Z,15.45
2019-02-21T01:06:16.559Z,14.20
2019-02-21T01:08:44.022Z,15.43
2019-02-21T01:11:11.421Z,16.27
2019-02-21T01:13:39.031Z,17.52
2019-02-21T01:16:06.762Z,12.30
2019-02-21T01:18:34.480Z,13.18
2019-02-21T01:21:01.836Z,13.32
2019-02-21T01:23:29.376Z,17.75
2019-02-21T01:25:57.036Z,15.50
2019-02-21T01:28:24.438Z,11.83
2019-02-21T01:30:56.925Z,17.70
2019-02-21T01:33:21.914Z,13.72
2019-02-21T01:35:49.388Z,13.43
2019-02-21T01:38:16.758Z,15.18
2019-02-21T01:40:44.198Z,17.20
2019-02-21T01:43:11.589Z,15.30
2019-02-21T01:45:39.025Z,14.40
2019-02-21T01:48:06.871Z,19.02
2019-02-21T01:50:34.644Z,13.15
2019-02-21T01:53:01.982Z,14.03
2019-02-21T01:55:29.680Z,14.07
2019-02-21T01:57:57.119Z,16.87
2019-02-21T02:00:25.117Z,15.13
2019-02-21T02:02:52.774Z,17.20
2019-02-21T02:05:20.583Z,19.75
2019-02-21T02:07:48.178Z,20.88
2019-02-21T02:10:15.576Z,16.42
2019-02-21T02:12:43.248Z,14.15
2019-02-21T02:15:11.096Z,20.77
2019-02-21T02:17:38.646Z,14.53
2019-02-21T02:20:06.021Z,14.05
2019-02-21T02:22:33.448Z,18.12
2019-02-21T02:25:00.877Z,16.37
2019-02-21T02:27:28.496Z,17.00
2019-02-21T02:29:55.861Z,16.82
2019-02-21T02:32:23.728Z,16.25
2019-02-21T02:34:51.354Z,13.65
2019-02-21T02:37:18.828Z,17.02
2019-02-21T02:39:46.552Z,14.05
2019-02-21T02:42:14.018Z,16.30
2019-02-21T02:44:42.472Z,14.80
2019-02-21T02:47:09.873Z,15.70
2019-02-21T02:49:37.687Z,14.15
2019-02-21T02:52:05.189Z,14.10
2019-02-21T02:54:32.639Z,16.00
2019-02-21T02:57:00.027Z,13.58
2019-02-21T02:59:40.026Z,15.88
2019-02-21T03:01:57.153Z,14.38
2019-02-21T03:04:24.697Z,16.55
2019-02-21T03:06:52.299Z,28.07
2019-02-21T03:09:19.726Z,16.75
2019-02-21T03:11:47.227Z,14.18
2019-02-21T03:14:14.781Z,15.70
2019-02-21T03:16:42.678Z,17.32
2019-02-21T03:19:10.095Z,15.45
2019-02-21T03:21:37.517Z,19.60
2019-02-21T03:24:05.244Z,14.28
2019-02-21T03:26:32.700Z,12.68
2019-02-21T03:29:00.193Z,17.37
2019-02-21T03:31:27.593Z,19.82
2019-02-21T03:33:55.424Z,15.80
2019-02-21T03:36:22.936Z,14.45
2019-02-21T03:38:51.145Z,13.40
2019-02-21T03:41:18.452Z,14.95
2019-02-21T03:43:45.791Z,13.70
2019-02-21T03:46:13.093Z,14.98
2019-02-21T03:48:40.723Z,17.12
2019-02-21T03:51:08.090Z,15.20
2019-02-21T03:53:35.753Z,13.00
2019-02-21T03:56:03.198Z,18.73
2019-02-21T03:58:30.651Z,15.88
2019-02-21T04:00:58.252Z,13.80
2019-02-21T04:03:25.849Z,16.73
2019-02-21T04:05:53.604Z,15.03
2019-02-21T04:08:21.058Z,17.73
2019-02-21T04:10:48.402Z,15.70
2019-02-21T04:13:15.751Z,16.52
2019-02-21T04:15:43.723Z,22.35
2019-02-21T04:18:11.217Z,20.75
2019-02-21T04:20:38.956Z,23.07
2019-02-21T04:23:06.387Z,16.75
2019-02-21T04:25:33.818Z,19.95
2019-02-21T04:28:01.296Z,19.07
2019-02-21T04:30:29.131Z,15.72
2019-02-21T04:32:56.456Z,17.37
2019-02-21T04:35:23.861Z,14.43
2019-02-21T04:37:51.433Z,19.17
2019-02-21T04:40:18.858Z,16.77
2019-02-21T04:42:46.302Z,15.10
2019-02-21T04:45:13.805Z,17.70
2019-02-21T04:47:41.660Z,19.17
2019-02-21T04:50:09.431Z,17.05
2019-02-21T04:52:36.852Z,19.32
2019-02-21T04:55:04.277Z,16.48
2019-02-21T04:57:31.742Z,16.42
2019-02-21T04:59:59.323Z,19.05
2019-02-21T05:02:29.472Z,14.10
2019-02-21T05:04:56.109Z,20.52
2019-02-21T05:07:23.845Z,16.50
2019-02-21T05:09:57.944Z,20.08
2019-02-21T05:12:20.420Z,20.95
2019-02-21T05:14:48.123Z,18.50
2019-02-21T05:17:15.643Z,18.48
2019-02-21T05:19:43.054Z,17.95
2019-02-21T05:22:10.567Z,13.43
2019-02-21T05:24:37.897Z,17.70
2019-02-21T05:27:09.859Z,14.68
2019-02-21T05:29:37.385Z,16.85
2019-02-21T05:32:11.992Z,15.03
2019-02-21T05:34:50.340Z,15.00
2019-02-21T05:37:46.334Z,16.37
2019-02-21T05:40:31.656Z,13.18
2019-02-21T05:43:37.283Z,16.50
2019-02-21T05:46:24.636Z,14.80
2019-02-21T05:49:07.479Z,14.20
2019-02-21T05:51:39.742Z,14.20
2019-02-21T05:54:32.405Z,19.02
2019-02-21T05:57:25.383Z,15.60
2019-02-21T06:00:10.649Z,14.15
2019-02-21T06:02:55.439Z,21.20
2019-02-21T06:05:42.585Z,14.58
2019-02-21T06:08:32.778Z,18.20
2019-02-21T06:11:14.375Z,10.55
2019-02-21T06:13:59.378Z,14.95
2019-02-21T06:16:34.200Z,16.12
2019-02-21T06:19:29.972Z,19.42
2019-02-21T06:22:10.643Z,15.32
2019-02-21T06:24:44.542Z,17.50
2019-02-21T06:27:34.712Z,28.55
2019-02-21T06:30:09.470Z,53.38
2019-02-21T06:32:37.134Z,45.90
2019-02-21T06:35:05.147Z,41.80
2019-02-21T06:37:33.005Z,45.08
2019-02-21T06:40:00.703Z,34.15
2019-02-21T06:42:28.315Z,35.73
2019-02-21T06:44:55.702Z,41.20
2019-02-21T06:47:23.100Z,47.45
2019-02-21T06:49:50.556Z,51.25
2019-02-21T06:52:17.923Z,49.38
2019-02-21T06:54:45.290Z,43.63
2019-02-21T06:57:12.952Z,39.83
2019-02-21T06:59:44.499Z,57.80
2019-02-21T07:02:09.779Z,47.35
2019-02-21T07:04:37.364Z,47.90
2019-02-21T07:07:04.658Z,43.00
2019-02-21T07:09:32.204Z,45.67
2019-02-21T07:11:59.599Z,41.15
2019-02-21T07:14:26.934Z,41.83
2019-02-21T07:16:54.311Z,26.27
2019-02-21T07:19:22.056Z,26.12
2019-02-21T07:21:49.373Z,20.90
2019-02-21T07:24:18.125Z,25.32
2019-02-21T07:26:45.614Z,23.38
2019-02-21T07:29:13.033Z,17.55
2019-02-21T07:31:40.700Z,20.92
2019-02-21T07:34:08.043Z,22.00
2019-02-21T07:36:35.429Z,20.25
2019-02-21T07:39:16.480Z,20.00
2019-02-21T07:41:33.379Z,22.00
2019-02-21T07:44:11.296Z,20.92
2019-02-21T07:46:32.309Z,23.52
2019-02-21T07:48:59.573Z,22.77
2019-02-21T07:51:26.971Z,23.92
2019-02-21T07:53:54.391Z,20.35
2019-02-21T07:56:21.871Z,23.55
2019-02-21T07:58:49.234Z,19.35
2019-02-21T08:01:17.622Z,22.48
2019-02-21T08:03:48.298Z,22.07
2019-02-21T08:06:14.304Z,34.35
2019-02-21T08:08:41.685Z,34.92
2019-02-21T08:11:09.400Z,35.23
2019-02-21T08:13:37.081Z,32.30
2019-02-21T08:16:04.361Z,27.70
2019-02-21T08:18:31.805Z,21.77
2019-02-21T08:20:59.280Z,17.73
2019-02-21T08:23:26.712Z,18.00
2019-02-21T08:25:54.369Z,16.20
2019-02-21T08:28:22.065Z,16.30
2019-02-21T08:30:49.373Z,18.25
2019-02-21T08:33:21.482Z,15.90
2019-02-21T08:35:48.964Z,15.48
2019-02-21T08:38:16.344Z,19.02
2019-02-21T08:40:43.649Z,18.27
2019-02-21T08:43:11.005Z,17.80
2019-02-21T08:45:38.724Z,21.23
2019-02-21T08:48:06.029Z,15.13
2019-02-21T08:50:33.593Z,18.12
2019-02-21T08:53:01.332Z,17.80
2019-02-21T08:55:28.728Z,22.15
2019-02-21T08:57:56.521Z,24.52
2019-02-21T09:00:23.955Z,39.33
2019-02-21T09:02:51.326Z,32.55
2019-02-21T09:05:19.049Z,37.65
2019-02-21T09:07:46.754Z,32.33
2019-02-21T09:10:14.195Z,23.10
2019-02-21T09:12:41.626Z,22.00
2019-02-21T09:15:11.423Z,23.22
2019-02-21T09:17:38.817Z,20.10
2019-02-21T09:20:06.995Z,20.43
2019-02-21T09:22:34.964Z,20.92
2019-02-21T09:25:02.919Z,20.20
2019-02-21T09:27:30.781Z,19.07
2019-02-21T09:29:58.499Z,21.10
2019-02-21T09:32:25.813Z,16.23
2019-02-21T09:34:53.283Z,19.30
2019-02-21T09:37:20.797Z,20.25
2019-02-21T09:39:48.216Z,22.55
2019-02-21T09:42:15.884Z,23.87
2019-02-21T09:44:43.641Z,21.27
2019-02-21T09:47:11.233Z,21.80
2019-02-21T09:49:38.649Z,21.62
2019-02-21T09:52:06.065Z,22.22
2019-02-21T09:54:33.492Z,22.32
2019-02-21T09:57:12.479Z,22.05
2019-02-21T09:59:30.475Z,22.90
2019-02-21T10:01:57.896Z,24.02
2019-02-21T10:04:32.197Z,21.80
2019-02-21T10:06:54.947Z,22.62
2019-02-21T10:09:22.222Z,34.90
2019-02-21T10:11:49.949Z,40.83
2019-02-21T10:14:17.403Z,45.05
2019-02-21T10:16:44.713Z,36.98
2019-02-21T10:19:12.113Z,35.55
2019-02-21T10:21:39.477Z,32.50
2019-02-21T10:24:06.878Z,25.75
2019-02-21T10:26:34.465Z,27.90
2019-02-21T10:29:01.787Z,24.25
2019-02-21T10:31:29.484Z,23.42
2019-02-21T10:33:56.918Z,26.37
2019-02-21T10:36:24.659Z,26.12
2019-02-21T10:38:51.940Z,20.55
2019-02-21T10:41:19.497Z,20.52
2019-02-21T10:43:46.965Z,23.92
2019-02-21T10:46:14.355Z,29.65
2019-02-21T10:48:41.907Z,26.37
2019-02-21T10:51:09.296Z,27.73
2019-02-21T10:53:36.732Z,24.12
2019-02-21T10:56:04.090Z,30.90
2019-02-21T10:58:31.440Z,26.20
2019-02-21T11:00:58.871Z,24.55
2019-02-21T11:03:26.566Z,24.65
2019-02-21T11:05:53.889Z,25.68
2019-02-21T11:08:21.183Z,26.93
2019-02-21T11:10:49.127Z,26.23
2019-02-21T11:13:16.529Z,29.48
2019-02-21T11:15:43.986Z,25.32
2019-02-21T11:18:11.415Z,25.35
2019-02-21T11:20:38.710Z,28.15
2019-02-21T11:23:06.667Z,26.55
2019-02-21T11:25:34.546Z,25.65
2019-02-21T11:28:01.978Z,25.12
2019-02-21T11:30:29.605Z,25.05
2019-02-21T11:32:57.068Z,29.30
2019-02-21T11:35:24.742Z,25.00
2019-02-21T11:37:52.075Z,23.45
2019-02-21T11:40:19.786Z,23.75
2019-02-21T11:42:47.223Z,23.90
2019-02-21T11:45:15.330Z,22.07
2019-02-21T11:47:43.071Z,27.32
2019-02-21T11:50:12.025Z,21.68
2019-02-21T11:52:39.452Z,25.05
2019-02-21T11:55:08.001Z,24.50
2019-02-21T11:57:35.450Z,21.23
2019-02-21T12:00:05.537Z,24.12
2019-02-21T12:02:38.776Z,24.90
2019-02-21T12:05:02.203Z,41.35
2019-02-21T12:07:29.560Z,32.63
2019-02-21T12:09:56.871Z,26.48
2019-02-21T12:12:24.557Z,23.15
2019-02-21T12:14:52.188Z,26.50
2019-02-21T12:17:19.527Z,30.62
2019-02-21T12:19:47.268Z,24.50
2019-02-21T12:22:14.614Z,22.07
2019-02-21T12:24:42.279Z,33.28
2019-02-21T12:27:09.741Z,24.25
2019-02-21T12:29:38.114Z,24.75
2019-02-21T12:32:06.243Z,23.30
2019-02-21T12:34:33.543Z,21.70
2019-02-21T12:37:00.871Z,24.05
2019-02-21T12:39:28.214Z,22.35
2019-02-21T12:41:55.917Z,20.32
2019-02-21T12:44:23.314Z,22.58
2019-02-21T12:46:50.916Z,21.35
2019-02-21T12:49:18.312Z,25.35
2019-02-21T12:51:46.085Z,21.90
2019-02-21T12:54:13.838Z,22.40
2019-02-21T12:56:41.575Z,23.25
2019-02-21T12:59:09.003Z,21.20
2019-02-21T13:01:36.900Z,23.12
2019-02-21T13:04:05.007Z,24.37
2019-02-21T13:06:32.598Z,20.85
2019-02-21T13:08:59.924Z,18.42
2019-02-21T13:11:27.338Z,17.17
2019-02-21T13:13:55.269Z,20.95
2019-02-21T13:16:22.649Z,21.37
2019-02-21T13:18:50.679Z,20.88
2019-02-21T13:21:18.262Z,15.40
2019-02-21T13:23:45.715Z,16.95
2019-02-21T13:26:13.092Z,18.57
2019-02-21T13:28:40.435Z,22.50
2019-02-21T13:31:07.862Z,17.37
2019-02-21T13:33:35.419Z,26.12
2019-02-21T13:36:04.049Z,18.65
2019-02-21T13:38:31.434Z,25.77
2019-02-21T13:40:59.137Z,23.22
2019-02-21T13:43:26.847Z,23.12
2019-02-21T13:45:54.465Z,25.05
2019-02-21T13:48:22.302Z,20.72
2019-02-21T13:50:49.619Z,23.90
2019-02-21T13:53:17.454Z,16.12
2019-02-21T13:55:44.786Z,17.05
2019-02-21T13:58:12.511Z,14.05
2019-02-21T14:00:40.251Z,17.37
2019-02-21T14:03:08.144Z,17.98
2019-02-21T14:05:35.977Z,21.23
2019-02-21T14:08:07.583Z,21.25
2019-02-21T14:10:34.919Z,21.45
2019-02-21T14:13:02.258Z,18.00
2019-02-21T14:15:29.602Z,20.30
2019-02-21T14:17:57.310Z,18.92
2019-02-21T14:20:25.034Z,17.73
2019-02-21T14:22:52.436Z,17.25
2019-02-21T14:25:19.856Z,20.32
2019-02-21T14:27:47.472Z,15.58
2019-02-21T14:30:15.985Z,15.23
2019-02-21T14:32:43.456Z,15.32
2019-02-21T14:35:11.467Z,15.25
2019-02-21T14:37:38.872Z,14.50
2019-02-21T14:40:07.748Z,17.00
2019-02-21T14:42:35.616Z,15.85
2019-02-21T14:45:04.245Z,15.30
2019-02-21T14:47:31.751Z,17.52
2019-02-21T14:49:59.278Z,13.50
2019-02-21T14:52:26.958Z,16.40
2019-02-21T14:54:54.481Z,15.75
2019-02-21T14:57:22.587Z,12.00
2019-02-21T14:59:50.365Z,15.65
2019-02-21T15:02:18.442Z,16.52
2019-02-21T15:04:46.120Z,14.33
2019-02-21T15:07:13.581Z,13.83
2019-02-21T15:09:40.994Z,10.93
2019-02-21T15:12:08.549Z,14.93
2019-02-21T15:14:37.281Z,17.48
2019-02-21T15:17:04.741Z,33.53
2019-02-21T15:19:32.239Z,15.90
2019-02-21T15:21:59.632Z,10.95
2019-02-21T15:24:27.297Z,16.20
2019-02-21T15:26:54.706Z,13.10
2019-02-21T15:29:23.019Z,11.00
2019-02-21T15:31:50.651Z,15.08
2019-02-21T15:34:18.134Z,13.53
2019-02-21T15:36:45.618Z,13.75
2019-02-21T15:39:13.043Z,14.45
2019-02-21T15:41:40.388Z,12.43
2019-02-21T15:44:07.723Z,12.98
2019-02-21T15:46:35.308Z,11.90
2019-02-21T15:49:03.025Z,13.08
2019-02-21T15:51:30.623Z,14.33
2019-02-21T15:53:58.462Z,12.78
2019-02-21T15:56:26.131Z,17.73
2019-02-21T15:58:53.972Z,18.05
2019-02-21T16:01:21.554Z,16.25
2019-02-21T16:03:48.957Z,12.30
2019-02-21T16:06:16.890Z,11.57
2019-02-21T16:08:44.489Z,14.58
2019-02-21T16:11:11.775Z,14.33
2019-02-21T16:13:39.904Z,15.40
2019-02-21T16:16:08.018Z,15.78
2019-02-21T16:18:35.445Z,16.05
2019-02-21T16:21:02.979Z,14.40
2019-02-21T16:23:30.701Z,11.63
2019-02-21T16:25:58.389Z,13.98
2019-02-21T16:28:26.030Z,12.00
2019-02-21T16:30:53.941Z,14.40
2019-02-21T16:33:21.771Z,13.03
2019-02-21T16:35:49.063Z,11.97
2019-02-21T16:38:16.785Z,13.48
2019-02-21T16:40:44.223Z,17.77
2019-02-21T16:43:11.616Z,18.12
2019-02-21T16:45:43.780Z,15.83
2019-02-21T16:48:08.674Z,12.60
2019-02-21T16:50:36.387Z,13.60
2019-02-21T16:53:03.831Z,10.80
2019-02-21T16:55:31.249Z,13.80
2019-02-21T16:57:58.724Z,12.63
2019-02-21T17:00:37.274Z,14.60
2019-02-21T17:02:55.628Z,13.65
2019-02-21T17:05:23.211Z,16.32
2019-02-21T17:07:50.965Z,12.90
2019-02-21T17:10:18.606Z,15.68
2019-02-21T17:12:46.054Z,14.90
2019-02-21T17:15:13.489Z,14.70
2019-02-21T17:17:40.977Z,11.57
2019-02-21T17:20:10.194Z,13.00
2019-02-21T17:22:38.230Z,13.83
2019-02-21T17:25:06.159Z,12.05
2019-02-21T17:27:34.156Z,12.05
2019-02-21T17:30:02.214Z,12.58
2019-02-21T17:32:29.634Z,15.50
2019-02-21T17:34:57.399Z,13.72
2019-02-21T17:37:25.474Z,9.00
2019-02-21T17:39:53.049Z,12.23
2019-02-21T17:42:21.104Z,13.40
2019-02-21T17:44:49.406Z,10.70
2019-02-21T17:47:17.226Z,15.75
2019-02-21T17:49:44.724Z,13.05
2019-02-21T17:52:12.943Z,12.45
2019-02-21T17:54:40.594Z,12.53
2019-02-21T17:57:08.737Z,9.63
2019-02-21T17:59:36.116Z,14.03
2019-02-21T18:02:03.753Z,11.18
2019-02-21T18:04:31.140Z,13.18
2019-02-21T18:06:58.540Z,14.35
2019-02-21T18:09:26.091Z,11.75
2019-02-21T18:11:53.710Z,10.88
2019-02-21T18:14:21.149Z,8.90
2019-02-21T18:16:48.516Z,10.18
2019-02-21T18:19:16.151Z,12.23
2019-02-21T18:21:43.490Z,12.78
2019-02-21T18:24:11.006Z,12.47
2019-02-21T18:26:38.439Z,15.05
2019-02-21T18:29:06.166Z,15.53
2019-02-21T18:31:33.589Z,14.10
2019-02-21T18:34:01.031Z,13.45
2019-02-21T18:36:28.432Z,18.92
2019-02-21T18:38:56.112Z,16.73
2019-02-21T18:41:23.531Z,14.05
2019-02-21T18:43:51.217Z,14.40
2019-02-21T18:46:18.531Z,16.97
2019-02-21T18:48:46.032Z,14.47
2019-02-21T18:51:13.525Z,20.25
2019-02-21T18:53:41.003Z,16.27
2019-02-21T18:56:08.688Z,14.05
2019-02-21T18:58:37.091Z,17.60
2019-02-21T19:01:04.762Z,14.50
2019-02-21T19:03:32.648Z,16.48
2019-02-21T19:05:59.985Z,13.25
2019-02-21T19:08:27.346Z,15.58
2019-02-21T19:10:55.446Z,15.93
2019-02-21T19:13:23.093Z,14.43
2019-02-21T19:15:50.923Z,18.75
2019-02-21T19:18:19.345Z,14.90
2019-02-21T19:20:47.017Z,15.68
2019-02-21T19:23:14.664Z,19.35
2019-02-21T19:25:42.044Z,16.93
2019-02-21T19:28:09.685Z,15.48
2019-02-21T19:30:46.489Z,13.55
2019-02-21T19:33:14.237Z,16.17
2019-02-21T19:35:41.989Z,13.45
2019-02-21T19:38:10.895Z,15.28
2019-02-21T19:40:38.365Z,20.72
2019-02-21T19:43:06.071Z,14.33
2019-02-21T19:45:33.590Z,14.53
2019-02-21T19:48:03.923Z,14.50
2019-02-21T19:50:30.960Z,15.23
2019-02-21T19:52:58.719Z,15.53
2019-02-21T19:55:26.477Z,14.83
2019-02-21T19:57:54.246Z,13.90
2019-02-21T20:00:30.512Z,16.50
2019-02-21T20:02:57.950Z,13.53
2019-02-21T20:05:25.382Z,15.13
2019-02-21T20:07:53.051Z,16.50
2019-02-21T20:10:20.537Z,16.57
2019-02-21T20:12:48.485Z,17.85
2019-02-21T20:15:15.939Z,18.25
2019-02-21T20:17:43.709Z,16.10
2019-02-21T20:20:12.160Z,18.20
2019-02-21T20:22:39.602Z,18.15
2019-02-21T20:25:06.978Z,16.90
2019-02-21T20:27:34.674Z,17.52
2019-02-21T20:30:02.121Z,18.48
2019-02-21T20:32:29.773Z,14.55
2019-02-21T20:34:57.841Z,20.23
2019-02-21T20:37:25.432Z,16.12
2019-02-21T20:39:55.038Z,17.60
2019-02-21T20:42:22.215Z,15.88
2019-02-21T20:44:50.016Z,15.23
2019-02-21T20:47:24.668Z,15.45
2019-02-21T20:49:52.298Z,17.00
2019-02-21T20:52:19.598Z,21.75
2019-02-21T20:54:47.309Z,17.17
2019-02-21T20:57:14.919Z,18.52
2019-02-21T20:59:42.477Z,17.65
2019-02-21T21:02:09.942Z,21.40
2019-02-21T21:04:37.427Z,17.05
2019-02-21T21:07:05.120Z,17.82
2019-02-21T21:09:32.589Z,19.82
2019-02-21T21:12:00.107Z,16.60
2019-02-21T21:14:27.612Z,18.32
2019-02-21T21:16:55.362Z,19.70
2019-02-21T21:19:22.810Z,14.65
2019-02-21T21:21:50.526Z,18.90
2019-02-21T21:24:17.870Z,22.35
2019-02-21T21:26:45.344Z,21.77
2019-02-21T21:29:14.016Z,16.27
2019-02-21T21:31:41.651Z,17.15
2019-02-21T21:34:09.368Z,22.13
2019-02-21T21:36:36.958Z,19.52
2019-02-21T21:39:04.680Z,19.80
2019-02-21T21:41:33.057Z,20.17
2019-02-21T21:44:00.581Z,17.42
2019-02-21T21:46:28.094Z,18.27
2019-02-21T21:48:55.475Z,19.15
2019-02-21T21:51:23.511Z,21.68
2019-02-21T21:53:50.970Z,19.42
2019-02-21T21:56:18.347Z,18.20
2019-02-21T21:58:45.812Z,18.75
2019-02-21T22:01:13.607Z,19.25
2019-02-21T22:03:41.589Z,20.40
2019-02-21T22:06:09.302Z,17.50
2019-02-21T22:08:36.703Z,19.23
2019-02-21T22:11:04.160Z,18.67
2019-02-21T22:13:31.858Z,15.68
2019-02-21T22:15:59.422Z,17.37
2019-02-21T22:18:26.902Z,18.92
2019-02-21T22:20:54.919Z,19.92
2019-02-21T22:23:22.331Z,14.85
2019-02-21T22:25:49.814Z,16.07
2019-02-21T22:28:17.294Z,15.35
2019-02-21T22:30:45.251Z,19.55
2019-02-21T22:33:12.870Z,16.62
2019-02-21T22:35:40.402Z,18.62
2019-02-21T22:38:08.058Z,16.85
2019-02-21T22:40:35.763Z,16.07
2019-02-21T22:43:03.162Z,20.92
2019-02-21T22:45:30.625Z,15.08
2019-02-21T22:47:58.742Z,19.37
2019-02-21T22:50:26.988Z,21.45
2019-02-21T22:52:54.529Z,18.95
2019-02-21T22:55:21.964Z,19.37
2019-02-21T22:57:49.619Z,15.45
2019-02-21T23:01:01.693Z,18.98
2019-02-21T23:03:57.268Z,19.12
2019-02-21T23:07:16.937Z,16.12
2019-02-21T23:09:44.493Z,18.15
2019-02-21T23:12:12.083Z,17.60
2019-02-21T23:14:39.473Z,19.10
2019-02-21T23:17:06.835Z,16.75
2019-02-21T23:19:34.189Z,19.60
2019-02-21T23:22:01.652Z,21.07
2019-02-21T23:24:29.166Z,17.60
2019-02-21T23:26:56.713Z,23.15
2019-02-21T23:29:24.137Z,17.60
2019-02-21T23:31:51.796Z,16.65
2019-02-21T23:34:47.748Z,20.10
2019-02-21T23:37:15.372Z,16.27
2019-02-21T23:39:42.831Z,16.07
2019-02-21T23:42:10.686Z,18.70
2019-02-21T23:44:38.141Z,19.57
2019-02-21T23:47:05.472Z,19.90
2019-02-21T23:49:32.844Z,19.92
2019-02-21T23:52:00.717Z,20.57
2019-02-21T23:54:28.123Z,19.73
2019-02-21T23:56:55.580Z,17.57
2019-02-21T23:59:22.986Z,15.90
